Terminal Aerodrome Forecast
Issued by NWS

Home | Current Version | Previous Version | Text Only | Print | Product List | Glossary On
Versions: 1 2 3 4 5 6 7 8 9 10 11 12 13 14 15
838
FTUS44 KLZK 261730
TAFHOT
TAF
KHOT 261730Z 2618/2718 VRB04KT P6SM BKN140
     FM270000 VRB03KT P6SM SCT250
     FM270600 00000KT P6SM SCT250
     FM271100 00000KT 4SM BR SCT250
     FM271500 11003KT P6SM SCT250=

USA.gov is the U.S. government's official web portal to all federal, state and local government web resources and services.